createdAt,value
2023-04-29T00:00:28.679Z,100517.40
2023-04-29T00:02:01.187Z,100519.80
2023-04-29T00:03:33.325Z,100521.40
2023-04-29T00:05:06.735Z,100526.20
2023-04-29T00:06:38.885Z,100525.00
2023-04-29T00:08:10.557Z,100523.80
2023-04-29T00:09:42.448Z,100524.40
2023-04-29T00:11:14.170Z,100522.60
2023-04-29T00:12:45.899Z,100531.80
2023-04-29T00:14:17.862Z,100522.00
2023-04-29T00:15:50.518Z,100528.60
2023-04-29T00:17:22.836Z,100523.80
2023-04-29T00:18:54.607Z,100525.60
2023-04-29T00:20:26.323Z,100526.40
2023-04-29T00:21:58.054Z,100532.00
2023-04-29T00:23:29.747Z,100530.80
2023-04-29T00:25:01.413Z,100534.60
2023-04-29T00:26:33.608Z,100538.80
2023-04-29T00:28:06.546Z,100535.00
2023-04-29T00:29:38.536Z,100535.20
2023-04-29T00:31:10.757Z,100538.80
2023-04-29T00:32:43.889Z,100539.00
2023-04-29T00:34:16.658Z,100544.40
2023-04-29T00:35:48.534Z,100543.20
2023-04-29T00:37:20.712Z,100547.00
2023-04-29T00:38:52.421Z,100545.60
2023-04-29T00:40:24.089Z,100548.20
2023-04-29T00:41:56.017Z,100551.80
2023-04-29T00:43:27.753Z,100553.40
2023-04-29T00:44:59.453Z,100553.60
2023-04-29T00:46:31.296Z,100554.20
2023-04-29T00:48:04.442Z,100554.80
2023-04-29T00:49:36.162Z,100555.40
2023-04-29T00:51:08.656Z,100555.80
2023-04-29T00:52:40.586Z,100559.40
2023-04-29T00:54:13.710Z,100564.40
2023-04-29T00:55:48.118Z,100564.20
2023-04-29T00:57:21.621Z,100568.80
2023-04-29T00:58:54.067Z,100568.40
2023-04-29T01:00:26.952Z,100573.60
2023-04-29T01:04:25.656Z,100575.80
2023-04-29T01:06:41.612Z,100582.20
2023-04-29T01:08:33.677Z,100581.00
2023-04-29T01:10:39.522Z,100581.20
2023-04-29T01:12:50.960Z,100585.40
2023-04-29T01:14:25.409Z,100586.40
2023-04-29T01:16:11.465Z,100589.40
2023-04-29T01:17:51.179Z,100586.20
2023-04-29T01:19:47.803Z,100589.20
2023-04-29T01:21:21.247Z,100589.00
2023-04-29T01:22:53.144Z,100590.60
2023-04-29T01:24:25.623Z,100589.00
2023-04-29T01:25:59.101Z,100589.00
2023-04-29T01:28:04.019Z,100593.20
2023-04-29T01:29:51.456Z,100590.80
2023-04-29T01:32:11.795Z,100592.20
2023-04-29T01:34:13.441Z,100597.00
2023-04-29T01:36:32.096Z,100595.80
2023-04-29T01:38:33.714Z,100602.40
2023-04-29T01:40:26.372Z,100607.60
2023-04-29T01:42:39.775Z,100614.40
2023-04-29T01:44:22.239Z,100611.40
2023-04-29T01:45:56.530Z,100615.60
2023-04-29T01:47:30.073Z,100612.80
2023-04-29T01:49:01.896Z,100607.80
2023-04-29T01:50:33.706Z,100608.40
2023-04-29T01:52:25.665Z,100610.80
2023-04-29T01:54:00.702Z,100614.20
2023-04-29T01:55:32.507Z,100613.80
2023-04-29T01:57:22.371Z,100616.40
2023-04-29T01:59:10.926Z,100625.40
2023-04-29T02:01:01.391Z,100622.00
2023-04-29T02:02:35.517Z,100621.20
2023-04-29T02:04:15.684Z,100622.80
2023-04-29T02:05:47.473Z,100621.60
2023-04-29T02:07:19.246Z,100624.40
2023-04-29T02:08:51.672Z,100630.40
2023-04-29T02:10:23.476Z,100623.80
2023-04-29T02:11:59.791Z,100628.00
2023-04-29T02:13:32.087Z,100631.00
2023-04-29T02:15:04.472Z,100634.20
2023-04-29T02:16:36.317Z,100636.20
2023-04-29T02:18:09.221Z,100639.40
2023-04-29T02:19:40.985Z,100644.80
2023-04-29T02:21:12.945Z,100644.60
2023-04-29T02:22:45.039Z,100644.00
2023-04-29T02:24:17.051Z,100646.80
2023-04-29T02:25:49.291Z,100645.00
2023-04-29T02:27:21.066Z,100646.20
2023-04-29T02:28:52.832Z,100647.60
2023-04-29T02:30:26.218Z,100652.00
2023-04-29T02:31:58.177Z,100649.40
2023-04-29T02:33:30.116Z,100651.00
2023-04-29T02:35:02.012Z,100653.40
2023-04-29T02:36:34.138Z,100651.60
2023-04-29T02:38:05.955Z,100655.40
2023-04-29T02:39:37.782Z,100657.40
2023-04-29T02:41:09.695Z,100657.60
2023-04-29T02:42:41.654Z,100662.60
2023-04-29T02:44:13.395Z,100665.40
2023-04-29T02:45:45.477Z,100664.00
2023-04-29T02:47:17.345Z,100665.40
2023-04-29T02:48:49.984Z,100666.20
2023-04-29T02:50:21.887Z,100669.00
2023-04-29T02:51:54.522Z,100669.60
2023-04-29T02:53:26.969Z,100670.00
2023-04-29T02:54:58.761Z,100671.60
2023-04-29T02:56:30.615Z,100677.40
2023-04-29T02:58:03.944Z,100676.20
2023-04-29T02:59:36.165Z,100675.40
2023-04-29T03:01:08.158Z,100676.00
2023-04-29T03:02:40.201Z,100676.80
2023-04-29T03:04:12.408Z,100678.40
2023-04-29T03:05:44.494Z,100677.40
2023-04-29T03:07:17.554Z,100681.00
2023-04-29T03:08:49.366Z,100677.80
2023-04-29T03:10:23.402Z,100682.80
2023-04-29T03:11:55.201Z,100687.00
2023-04-29T03:13:27.018Z,100688.00
2023-04-29T03:14:58.849Z,100685.60
2023-04-29T03:16:31.451Z,100688.20
2023-04-29T03:18:05.016Z,100689.20
2023-04-29T03:19:38.760Z,100687.20
2023-04-29T03:21:10.738Z,100691.00
2023-04-29T03:22:42.542Z,100692.20
2023-04-29T03:24:15.989Z,100693.20
2023-04-29T03:25:47.841Z,100696.60
2023-04-29T03:27:19.870Z,100694.80
2023-04-29T03:28:52.512Z,100695.40
2023-04-29T03:30:24.261Z,100695.40
2023-04-29T03:31:58.428Z,100704.80
2023-04-29T03:33:30.214Z,100703.20
2023-04-29T03:35:02.310Z,100704.00
2023-04-29T03:36:41.537Z,100706.20
2023-04-29T03:38:13.549Z,100706.00
2023-04-29T03:39:45.316Z,100702.60
2023-04-29T03:41:19.191Z,100703.20
2023-04-29T03:42:52.437Z,100705.20
2023-04-29T03:44:24.691Z,100708.20
2023-04-29T03:45:56.498Z,100705.60
2023-04-29T03:47:28.550Z,100709.20
2023-04-29T03:49:00.336Z,100709.20
2023-04-29T03:50:32.270Z,100710.80
2023-04-29T03:52:04.889Z,100712.60
2023-04-29T03:53:37.190Z,100712.00
2023-04-29T03:55:10.428Z,100711.40
2023-04-29T03:56:43.266Z,100707.80
2023-04-29T03:58:15.397Z,100712.80
2023-04-29T03:59:50.547Z,100712.40
2023-04-29T04:01:22.761Z,100709.40
2023-04-29T04:02:54.737Z,100707.40
2023-04-29T04:04:27.088Z,100717.80
2023-04-29T04:05:59.322Z,100715.00
2023-04-29T04:07:31.086Z,100720.00
2023-04-29T04:09:21.533Z,100718.40
2023-04-29T04:10:53.560Z,100723.00
2023-04-29T04:12:36.688Z,100724.60
2023-04-29T04:14:08.413Z,100727.20
2023-04-29T04:15:40.641Z,100727.00
2023-04-29T04:17:12.473Z,100732.60
2023-04-29T04:18:45.289Z,100737.80
2023-04-29T04:20:17.400Z,100736.20
2023-04-29T04:21:49.507Z,100736.40
2023-04-29T04:23:21.389Z,100739.20
2023-04-29T04:24:55.982Z,100743.00
2023-04-29T04:26:28.222Z,100739.00
2023-04-29T04:28:12.108Z,100737.80
2023-04-29T04:29:56.345Z,100741.20
2023-04-29T04:31:32.604Z,100742.80
2023-04-29T04:33:04.490Z,100745.00
2023-04-29T04:34:39.296Z,100747.20
2023-04-29T04:36:11.191Z,100748.60
2023-04-29T04:37:43.211Z,100748.80
2023-04-29T04:39:15.458Z,100751.00
2023-04-29T04:40:47.399Z,100750.40
2023-04-29T04:42:34.158Z,100757.40
2023-04-29T04:44:06.408Z,100757.00
2023-04-29T04:45:47.951Z,100760.20
2023-04-29T04:47:19.807Z,100762.40
2023-04-29T04:48:56.081Z,100758.80
2023-04-29T04:50:29.517Z,100764.80
2023-04-29T04:52:01.313Z,100765.20
2023-04-29T04:53:33.205Z,100764.80
2023-04-29T04:55:12.718Z,100765.80
2023-04-29T04:56:48.590Z,100769.40
2023-04-29T04:58:20.581Z,100772.40
2023-04-29T04:59:53.337Z,100774.80
2023-04-29T05:01:25.437Z,100773.60
2023-04-29T05:02:58.049Z,100772.40
2023-04-29T05:04:30.372Z,100775.60
2023-04-29T05:06:02.788Z,100773.80
2023-04-29T05:07:37.811Z,100773.00
2023-04-29T05:09:09.973Z,100776.20
2023-04-29T05:10:42.136Z,100780.80
2023-04-29T05:12:15.850Z,100782.00
2023-04-29T05:13:48.875Z,100783.40
2023-04-29T05:15:21.684Z,100787.00
2023-04-29T05:16:59.828Z,100790.40
2023-04-29T05:18:32.147Z,100791.40
2023-04-29T05:20:05.549Z,100795.60
2023-04-29T05:21:38.251Z,100795.00
2023-04-29T05:23:10.425Z,100789.80
2023-04-29T05:24:44.275Z,100794.40
2023-04-29T05:26:16.038Z,100796.80
2023-04-29T05:27:47.841Z,100795.20
2023-04-29T05:29:22.135Z,100795.80
2023-04-29T05:30:57.638Z,100795.00
2023-04-29T05:32:29.512Z,100796.80
2023-04-29T05:34:01.310Z,100799.00
2023-04-29T05:35:33.392Z,100799.40
2023-04-29T05:37:05.443Z,100805.60
2023-04-29T05:38:39.061Z,100804.40
2023-04-29T05:40:13.470Z,100811.20
2023-04-29T05:41:45.553Z,100812.40
2023-04-29T05:43:27.945Z,100810.40
2023-04-29T05:45:00.428Z,100815.40
2023-04-29T05:46:32.418Z,100816.40
2023-04-29T05:48:05.205Z,100814.80
2023-04-29T05:49:37.063Z,100815.80
2023-04-29T05:51:09.736Z,100821.00
2023-04-29T05:52:41.760Z,100823.40
2023-04-29T05:54:14.363Z,100832.40
2023-04-29T05:55:47.656Z,100835.20
2023-04-29T05:57:21.231Z,100836.40
2023-04-29T05:58:54.091Z,100837.40
2023-04-29T06:00:26.868Z,100843.40
2023-04-29T06:02:01.348Z,100837.60
2023-04-29T06:03:33.457Z,100845.00
2023-04-29T06:05:24.512Z,100848.60
2023-04-29T06:07:24.080Z,100851.60
2023-04-29T06:09:19.933Z,100853.60
2023-04-29T06:10:59.226Z,100853.40
2023-04-29T06:12:31.306Z,100857.80
2023-04-29T06:14:03.974Z,100858.20
2023-04-29T06:15:36.782Z,100859.60
2023-04-29T06:17:08.770Z,100859.80
2023-04-29T06:18:41.421Z,100866.20
2023-04-29T06:20:13.501Z,100861.00
2023-04-29T06:21:45.292Z,100866.60
2023-04-29T06:23:17.728Z,100866.80
2023-04-29T06:24:49.917Z,100870.20
2023-04-29T06:26:30.232Z,100870.80
2023-04-29T06:28:03.437Z,100880.20
2023-04-29T06:29:35.732Z,100876.00
2023-04-29T06:31:08.220Z,100878.80
2023-04-29T06:32:40.811Z,100882.00
2023-04-29T06:34:13.230Z,100879.60
2023-04-29T06:36:00.840Z,100882.20
2023-04-29T06:37:51.089Z,100880.80
2023-04-29T06:39:36.118Z,100884.20
2023-04-29T06:41:25.558Z,100887.60
2023-04-29T06:42:57.400Z,100888.40
2023-04-29T06:44:50.620Z,100895.60
2023-04-29T06:46:45.094Z,100902.60
2023-04-29T06:48:35.910Z,100906.40
2023-04-29T06:50:10.200Z,100902.60
2023-04-29T06:51:42.990Z,100908.00
2023-04-29T06:53:14.771Z,100914.40
2023-04-29T06:54:46.520Z,100916.40
2023-04-29T06:56:18.962Z,100919.60
2023-04-29T06:57:52.601Z,100916.00
2023-04-29T06:59:24.522Z,100918.20
2023-04-29T07:00:56.420Z,100923.20
2023-04-29T07:02:28.299Z,100920.60
2023-04-29T07:04:00.435Z,100922.80
2023-04-29T07:05:32.638Z,100921.80
2023-04-29T07:07:04.567Z,100923.20
2023-04-29T07:08:36.361Z,100924.80
2023-04-29T07:10:08.934Z,100929.20
2023-04-29T07:11:41.395Z,100932.40
2023-04-29T07:13:13.171Z,100932.60
2023-04-29T07:14:45.150Z,100930.80
2023-04-29T07:16:20.727Z,100939.20
2023-04-29T07:17:53.065Z,100936.80
2023-04-29T07:19:25.050Z,100936.20
2023-04-29T07:21:02.421Z,100939.40
2023-04-29T07:22:34.473Z,100946.40
2023-04-29T07:24:07.588Z,100951.40
2023-04-29T07:25:39.340Z,100952.40
2023-04-29T07:27:11.217Z,100954.20
2023-04-29T07:28:44.517Z,100956.80
2023-04-29T07:30:16.304Z,100957.60
2023-04-29T07:31:48.211Z,100959.80
2023-04-29T07:33:21.491Z,100962.20
2023-04-29T07:34:54.266Z,100967.60
2023-04-29T07:36:28.310Z,100969.40
2023-04-29T07:38:00.211Z,100972.40
2023-04-29T07:39:32.073Z,100977.60
2023-04-29T07:41:04.637Z,100978.20
2023-04-29T07:42:36.533Z,100986.00
2023-04-29T07:44:09.543Z,100987.20
2023-04-29T07:45:41.548Z,100986.40
2023-04-29T07:47:13.362Z,100984.20
2023-04-29T07:48:46.053Z,100989.20
2023-04-29T07:50:17.978Z,100992.00
2023-04-29T07:51:49.901Z,100994.00
2023-04-29T07:53:21.901Z,100998.80
2023-04-29T07:54:56.386Z,101003.00
2023-04-29T07:56:28.372Z,101002.60
2023-04-29T07:58:00.796Z,101003.60
2023-04-29T07:59:32.861Z,101009.60
2023-04-29T08:01:12.375Z,101008.00
2023-04-29T08:02:45.580Z,101009.60
2023-04-29T08:04:19.559Z,101013.40
2023-04-29T08:05:56.417Z,101016.80
2023-04-29T08:07:28.376Z,101014.20
2023-04-29T08:09:01.630Z,101019.80
2023-04-29T08:10:41.007Z,101018.40
2023-04-29T08:12:14.094Z,101020.60
2023-04-29T08:13:47.893Z,101024.60
2023-04-29T08:15:20.389Z,101027.20
2023-04-29T08:16:52.306Z,101023.80
2023-04-29T08:18:24.174Z,101029.80
2023-04-29T08:19:56.012Z,101031.00
2023-04-29T08:21:28.711Z,101029.40
2023-04-29T08:23:03.292Z,101032.80
2023-04-29T08:24:35.345Z,101033.00
2023-04-29T08:26:07.239Z,101028.40
2023-04-29T08:27:40.452Z,101033.40
2023-04-29T08:29:12.287Z,101032.80
2023-04-29T08:30:44.153Z,101036.40
2023-04-29T08:32:16.029Z,101040.60
2023-04-29T08:33:48.865Z,101042.00
2023-04-29T08:35:20.652Z,101039.60
2023-04-29T08:36:52.609Z,101043.60
2023-04-29T08:38:25.726Z,101042.80
2023-04-29T08:39:57.654Z,101047.60
2023-04-29T08:41:32.174Z,101050.80
2023-04-29T08:43:05.249Z,101051.80
2023-04-29T08:44:37.418Z,101054.60
2023-04-29T08:46:10.796Z,101053.00
2023-04-29T08:47:44.159Z,101053.60
2023-04-29T08:49:16.074Z,101059.20
2023-04-29T08:50:47.894Z,101065.40
2023-04-29T08:52:19.944Z,101066.80
2023-04-29T08:53:52.035Z,101064.20
2023-04-29T08:55:24.759Z,101063.00
2023-04-29T08:56:58.127Z,101065.00
2023-04-29T08:58:34.326Z,101064.20
2023-04-29T09:00:13.313Z,101069.00
2023-04-29T09:01:52.166Z,101070.20
2023-04-29T09:03:54.081Z,101069.20
2023-04-29T09:05:27.444Z,101073.60
2023-04-29T09:07:00.159Z,101069.80
2023-04-29T09:08:34.125Z,101072.00
2023-04-29T09:10:07.501Z,101072.20
2023-04-29T09:11:39.410Z,101067.20
2023-04-29T09:13:30.849Z,101068.40
2023-04-29T09:15:04.383Z,101073.60
2023-04-29T09:16:38.307Z,101083.40
2023-04-29T09:18:10.336Z,101083.80
2023-04-29T09:19:44.480Z,101082.40
2023-04-29T09:21:28.909Z,101082.60
2023-04-29T09:23:04.150Z,101079.20
2023-04-29T09:24:36.583Z,101084.40
2023-04-29T09:26:08.514Z,101086.80
2023-04-29T09:27:40.411Z,101088.80
2023-04-29T09:29:14.494Z,101093.20
2023-04-29T09:30:47.363Z,101092.00
2023-04-29T09:32:23.302Z,101093.60
2023-04-29T09:33:58.689Z,101103.00
2023-04-29T09:35:31.528Z,101100.80
2023-04-29T09:37:03.379Z,101105.20
2023-04-29T09:38:36.683Z,101106.80
2023-04-29T09:40:30.790Z,101107.20
2023-04-29T09:42:03.299Z,101106.40
2023-04-29T09:43:35.096Z,101107.60
2023-04-29T09:45:07.560Z,101111.00
2023-04-29T09:46:39.419Z,101108.60
2023-04-29T09:48:12.780Z,101112.00
2023-04-29T09:49:46.189Z,101111.80
2023-04-29T09:51:18.048Z,101117.40
2023-04-29T09:52:50.163Z,101116.80
2023-04-29T09:54:25.400Z,101118.80
2023-04-29T09:56:02.990Z,101120.20
2023-04-29T09:57:45.196Z,101121.40
2023-04-29T09:59:18.015Z,101118.00
2023-04-29T10:00:49.844Z,101117.20
2023-04-29T10:02:23.951Z,101118.60
2023-04-29T10:03:57.166Z,101121.40
2023-04-29T10:05:31.203Z,101117.00
2023-04-29T10:07:03.624Z,101116.20
2023-04-29T10:08:36.107Z,101117.40
2023-04-29T10:10:11.389Z,101115.60
2023-04-29T10:11:45.364Z,101119.00
2023-04-29T10:13:17.330Z,101117.00
2023-04-29T10:15:04.984Z,101117.80
2023-04-29T10:16:46.932Z,101123.60
2023-04-29T10:18:31.919Z,101125.80
2023-04-29T10:20:09.046Z,101128.80
2023-04-29T10:21:41.151Z,101132.20
2023-04-29T10:23:15.852Z,101131.80
2023-04-29T10:24:49.531Z,101131.80
2023-04-29T10:26:23.363Z,101128.40
2023-04-29T10:27:56.437Z,101125.60
2023-04-29T10:29:31.025Z,101127.80
2023-04-29T10:31:05.833Z,101131.20
2023-04-29T10:32:50.616Z,101124.00
2023-04-29T10:34:24.526Z,101131.80
2023-04-29T10:35:56.242Z,101130.60
2023-04-29T10:37:28.715Z,101132.20
2023-04-29T10:39:06.110Z,101132.60
2023-04-29T10:40:48.909Z,101133.00
2023-04-29T10:42:39.355Z,101129.80
2023-04-29T10:44:11.428Z,101134.00
2023-04-29T10:45:43.463Z,101131.00
2023-04-29T10:47:21.581Z,101136.40
2023-04-29T10:49:06.537Z,101129.80
2023-04-29T10:50:47.367Z,101131.60
2023-04-29T10:52:19.296Z,101132.80
2023-04-29T10:54:07.325Z,101128.20
2023-04-29T10:55:39.217Z,101132.20
2023-04-29T10:57:21.533Z,101132.00
2023-04-29T10:58:53.351Z,101136.20
2023-04-29T11:00:33.929Z,101139.40
2023-04-29T11:02:06.141Z,101144.20
2023-04-29T11:04:04.649Z,101144.40
2023-04-29T11:05:37.854Z,101143.80
2023-04-29T11:07:09.669Z,101146.60
2023-04-29T11:08:43.084Z,101141.40
2023-04-29T11:10:14.977Z,101140.80
2023-04-29T11:11:54.058Z,101144.80
2023-04-29T11:13:28.049Z,101146.00
2023-04-29T11:15:06.141Z,101147.60
2023-04-29T11:16:38.768Z,101151.80
2023-04-29T11:18:11.864Z,101153.40
2023-04-29T11:19:46.350Z,101149.80
2023-04-29T11:21:18.350Z,101151.60
2023-04-29T11:22:52.118Z,101152.40
2023-04-29T11:24:23.931Z,101153.00
2023-04-29T11:25:56.190Z,101152.60
2023-04-29T11:27:38.785Z,101146.00
2023-04-29T11:29:10.885Z,101152.80
2023-04-29T11:30:43.375Z,101149.80
2023-04-29T11:32:15.444Z,101149.00
2023-04-29T11:33:47.373Z,101152.40
2023-04-29T11:35:22.151Z,101158.80
2023-04-29T11:36:54.282Z,101154.80
2023-04-29T11:38:31.075Z,101157.60
2023-04-29T11:40:03.481Z,101157.80
2023-04-29T11:41:36.041Z,101154.80
2023-04-29T11:43:07.829Z,101157.80
2023-04-29T11:44:39.561Z,101156.40
2023-04-29T11:46:16.631Z,101158.80
2023-04-29T11:47:49.926Z,101159.60
2023-04-29T11:49:21.714Z,101160.20
2023-04-29T11:50:57.819Z,101161.20
2023-04-29T11:52:29.707Z,101162.40
2023-04-29T11:54:01.599Z,101160.00
2023-04-29T11:55:34.584Z,101163.60
2023-04-29T11:57:06.871Z,101167.40
2023-04-29T11:58:39.293Z,101171.80
2023-04-29T12:00:13.754Z,101162.40
2023-04-29T12:01:46.632Z,101165.80
2023-04-29T12:03:20.785Z,101162.20
2023-04-29T12:04:53.152Z,101171.80
2023-04-29T12:06:30.296Z,101163.20
2023-04-29T12:08:02.165Z,101162.60
2023-04-29T12:09:47.375Z,101163.00
2023-04-29T12:11:20.249Z,101159.20
2023-04-29T12:12:52.816Z,101164.00
2023-04-29T12:14:24.723Z,101161.40
2023-04-29T12:15:58.566Z,101164.00
2023-04-29T12:17:30.704Z,101165.00
2023-04-29T12:19:03.076Z,101161.40
2023-04-29T12:20:35.087Z,101164.20
2023-04-29T12:22:08.344Z,101167.00
2023-04-29T12:23:41.554Z,101166.60
2023-04-29T12:25:13.414Z,101164.20
2023-04-29T12:26:46.682Z,101166.80
2023-04-29T12:28:19.381Z,101168.20
2023-04-29T12:29:53.207Z,101168.80
2023-04-29T12:31:34.830Z,101164.40
2023-04-29T12:33:10.016Z,101161.80
2023-04-29T12:34:41.949Z,101164.40
2023-04-29T12:36:18.541Z,101167.00
2023-04-29T12:37:51.583Z,101167.00
2023-04-29T12:39:23.959Z,101168.40
2023-04-29T12:40:59.173Z,101169.80
2023-04-29T12:42:36.449Z,101168.20
2023-04-29T12:44:10.986Z,101170.20
2023-04-29T12:45:43.247Z,101175.60
2023-04-29T12:47:16.971Z,101170.00
2023-04-29T12:48:49.000Z,101169.80
2023-04-29T12:50:21.093Z,101168.80
2023-04-29T12:51:52.979Z,101168.20
2023-04-29T12:53:25.071Z,101169.60
2023-04-29T12:54:57.846Z,101171.80
2023-04-29T12:56:31.407Z,101167.60
2023-04-29T12:58:05.551Z,101174.80
2023-04-29T12:59:38.470Z,101173.00
2023-04-29T13:01:11.636Z,101174.60
2023-04-29T13:02:43.725Z,101175.40
2023-04-29T13:04:15.689Z,101179.40
2023-04-29T13:05:51.253Z,101178.20
2023-04-29T13:07:23.185Z,101173.40
2023-04-29T13:08:55.588Z,101181.60
2023-04-29T13:10:31.194Z,101175.00
2023-04-29T13:12:02.926Z,101175.00
2023-04-29T13:13:34.643Z,101176.40
2023-04-29T13:15:11.669Z,101175.00
2023-04-29T13:16:43.487Z,101177.20
2023-04-29T13:18:15.737Z,101180.20
2023-04-29T13:19:51.729Z,101183.80
2023-04-29T13:21:24.340Z,101181.60
2023-04-29T13:22:56.300Z,101182.80
2023-04-29T13:24:28.094Z,101181.40
2023-04-29T13:25:59.878Z,101182.60
2023-04-29T13:27:32.172Z,101182.40
2023-04-29T13:29:04.220Z,101185.00
2023-04-29T13:30:36.325Z,101183.60
2023-04-29T13:32:09.097Z,101184.00
2023-04-29T13:33:40.969Z,101180.00
2023-04-29T13:35:13.131Z,101183.80
2023-04-29T13:36:44.905Z,101185.20
2023-04-29T13:38:17.689Z,101190.40
2023-04-29T13:39:56.810Z,101190.20
2023-04-29T13:41:32.179Z,101188.40
2023-04-29T13:43:09.294Z,101191.40
2023-04-29T13:44:52.196Z,101186.60
2023-04-29T13:46:25.185Z,101195.20
2023-04-29T13:48:08.436Z,101190.20
2023-04-29T13:52:07.409Z,101195.20
2023-04-29T13:55:04.472Z,101200.00
2023-04-29T13:57:30.062Z,101200.40
2023-04-29T13:59:08.834Z,101195.00
2023-04-29T14:00:45.279Z,101193.80
2023-04-29T14:02:25.180Z,101195.20
2023-04-29T14:03:58.347Z,101200.80
2023-04-29T14:05:30.474Z,101201.00
2023-04-29T14:07:02.493Z,101202.20
2023-04-29T14:08:34.276Z,101206.40
2023-04-29T14:10:06.997Z,101204.60
2023-04-29T14:11:38.892Z,101204.00
2023-04-29T14:13:10.634Z,101206.20
2023-04-29T14:14:42.379Z,101208.20
2023-04-29T14:16:14.278Z,101208.40
2023-04-29T14:17:46.336Z,101204.60
2023-04-29T14:19:18.114Z,101208.60
2023-04-29T14:20:49.834Z,101204.60
2023-04-29T14:22:21.970Z,101210.40
2023-04-29T14:23:53.685Z,101202.20
2023-04-29T14:25:26.743Z,101201.20
2023-04-29T14:27:02.043Z,101204.80
2023-04-29T14:28:33.783Z,101203.80
2023-04-29T14:30:06.790Z,101206.00
2023-04-29T14:31:40.657Z,101207.40
2023-04-29T14:33:12.502Z,101205.80
2023-04-29T14:34:44.270Z,101201.80
2023-04-29T14:36:16.043Z,101208.00
2023-04-29T14:37:47.872Z,101211.20
2023-04-29T14:39:19.646Z,101211.60
2023-04-29T14:40:51.634Z,101215.20
2023-04-29T14:42:23.372Z,101218.00
2023-04-29T14:43:55.235Z,101222.80
2023-04-29T14:45:26.953Z,101221.00
2023-04-29T14:46:59.020Z,101223.00
2023-04-29T14:48:30.846Z,101220.40
2023-04-29T14:50:02.661Z,101221.80
2023-04-29T14:51:34.576Z,101226.60
2023-04-29T14:53:08.335Z,101222.20
2023-04-29T14:54:40.028Z,101231.20
2023-04-29T14:56:12.151Z,101227.60
2023-04-29T14:57:43.879Z,101229.00
2023-04-29T14:59:16.756Z,101224.40
2023-04-29T15:00:49.425Z,101229.80
2023-04-29T15:02:21.384Z,101233.80
2023-04-29T15:03:53.205Z,101224.80
2023-04-29T15:05:25.275Z,101226.40
2023-04-29T15:06:58.312Z,101229.40
2023-04-29T15:08:31.162Z,101232.00
2023-04-29T15:10:03.772Z,101226.20
2023-04-29T15:11:35.525Z,101229.00
2023-04-29T15:13:07.216Z,101226.20
2023-04-29T15:14:38.967Z,101225.20
2023-04-29T15:16:10.921Z,101228.20
2023-04-29T15:17:43.151Z,101231.00
2023-04-29T15:19:14.925Z,101226.40
2023-04-29T15:20:46.884Z,101240.20
2023-04-29T15:22:18.583Z,101245.60
2023-04-29T15:23:50.802Z,101243.40
2023-04-29T15:25:24.232Z,101242.60
2023-04-29T15:26:58.169Z,101242.60
2023-04-29T15:28:30.049Z,101245.40
2023-04-29T15:30:02.442Z,101247.40
2023-04-29T15:31:34.328Z,101246.40
2023-04-29T15:33:06.322Z,101250.00
2023-04-29T15:34:38.076Z,101249.00
2023-04-29T15:36:09.962Z,101246.00
2023-04-29T15:37:41.810Z,101244.80
2023-04-29T15:39:14.026Z,101244.80
2023-04-29T15:40:46.445Z,101245.60
2023-04-29T15:42:18.273Z,101249.60
2023-04-29T15:43:49.977Z,101251.00
2023-04-29T15:45:21.892Z,101248.20
2023-04-29T15:46:53.594Z,101251.40
2023-04-29T15:48:25.373Z,101252.60
2023-04-29T15:49:57.262Z,101257.00
2023-04-29T15:51:28.970Z,101252.20
2023-04-29T15:53:00.747Z,101257.00
2023-04-29T15:54:32.449Z,101256.20
2023-04-29T15:56:04.842Z,101257.00
2023-04-29T15:57:41.281Z,101258.20
2023-04-29T15:59:13.394Z,101256.60
2023-04-29T16:00:45.359Z,101258.60
2023-04-29T16:02:17.301Z,101260.60
2023-04-29T16:03:49.076Z,101259.80
2023-04-29T16:05:21.088Z,101264.20
2023-04-29T16:06:53.708Z,101264.20
2023-04-29T16:08:26.129Z,101265.20
2023-04-29T16:09:58.156Z,101271.40
2023-04-29T16:11:29.920Z,101271.40
2023-04-29T16:13:01.656Z,101272.80
2023-04-29T16:14:33.438Z,101270.60
2023-04-29T16:16:05.363Z,101276.80
2023-04-29T16:17:37.193Z,101274.40
2023-04-29T16:19:09.674Z,101277.80
2023-04-29T16:20:42.059Z,101281.20
2023-04-29T16:22:13.930Z,101277.80
2023-04-29T16:23:46.190Z,101278.60
2023-04-29T16:25:17.981Z,101277.20
2023-04-29T16:26:50.815Z,101276.40
2023-04-29T16:28:22.597Z,101280.60
2023-04-29T16:29:55.675Z,101278.80
2023-04-29T16:31:28.299Z,101282.20
2023-04-29T16:33:00.284Z,101279.60
2023-04-29T16:34:32.171Z,101278.20
2023-04-29T16:36:05.288Z,101277.80
2023-04-29T16:37:37.581Z,101277.80
2023-04-29T16:39:09.339Z,101278.40
2023-04-29T16:40:41.362Z,101281.00
2023-04-29T16:42:13.250Z,101280.40
2023-04-29T16:43:44.941Z,101280.00
2023-04-29T16:45:17.031Z,101284.00
2023-04-29T16:46:49.238Z,101282.20
2023-04-29T16:48:21.181Z,101280.00
2023-04-29T16:49:52.986Z,101279.20
2023-04-29T16:51:25.628Z,101280.20
2023-04-29T16:52:57.621Z,101279.00
2023-04-29T16:54:29.464Z,101280.80
2023-04-29T16:56:01.195Z,101280.40
2023-04-29T16:57:33.749Z,101279.80
2023-04-29T16:59:05.603Z,101280.40
2023-04-29T17:00:37.853Z,101286.80
2023-04-29T17:02:09.731Z,101282.80
2023-04-29T17:03:41.943Z,101284.40
2023-04-29T17:05:13.906Z,101287.40
2023-04-29T17:06:45.945Z,101280.40
2023-04-29T17:08:17.925Z,101286.80
2023-04-29T17:09:50.173Z,101288.40
2023-04-29T17:11:22.270Z,101288.80
2023-04-29T17:12:54.709Z,101289.40
2023-04-29T17:14:27.122Z,101294.00
2023-04-29T17:15:59.090Z,101295.80
2023-04-29T17:17:31.076Z,101296.20
2023-04-29T17:19:03.018Z,101295.80
2023-04-29T17:20:35.322Z,101295.40
2023-04-29T17:22:07.133Z,101292.60
2023-04-29T17:23:38.910Z,101296.00
2023-04-29T17:25:13.786Z,101295.20
2023-04-29T17:26:45.827Z,101292.20
2023-04-29T17:28:17.707Z,101292.60
2023-04-29T17:29:49.443Z,101290.00
2023-04-29T17:31:25.166Z,101289.40
2023-04-29T17:32:57.164Z,101294.40
2023-04-29T17:34:31.082Z,101294.20
2023-04-29T17:36:04.911Z,101292.60
2023-04-29T17:37:37.074Z,101291.00
2023-04-29T17:39:11.150Z,101293.80
2023-04-29T17:40:42.889Z,101294.20
2023-04-29T17:42:14.730Z,101289.80
2023-04-29T17:43:47.206Z,101293.20
2023-04-29T17:45:19.252Z,101292.20
2023-04-29T17:46:51.465Z,101293.20
2023-04-29T17:48:23.337Z,101298.20
2023-04-29T17:49:56.315Z,101296.00
2023-04-29T17:51:29.061Z,101294.20
2023-04-29T17:53:00.879Z,101299.00
2023-04-29T17:54:32.884Z,101300.80
2023-04-29T17:56:05.303Z,101299.20
2023-04-29T17:57:38.240Z,101301.40
2023-04-29T17:59:11.231Z,101302.20
2023-04-29T18:00:43.052Z,101300.40
2023-04-29T18:02:14.758Z,101300.60
2023-04-29T18:03:47.107Z,101303.20